createdAt,value
2017-10-25T00:00:44.008Z,80.57
2017-10-25T00:01:43.989Z,80.29
2017-10-25T00:02:43.978Z,80.29
2017-10-25T00:03:43.962Z,80.10
2017-10-25T00:04:43.940Z,80.10
2017-10-25T00:05:43.924Z,80.67
2017-10-25T00:06:43.904Z,80.48
2017-10-25T00:07:43.892Z,79.63
2017-10-25T00:08:43.873Z,79.63
2017-10-25T00:09:43.861Z,80.00
2017-10-25T00:10:43.837Z,80.57
2017-10-25T00:11:43.821Z,80.67
2017-10-25T00:12:43.805Z,80.57
2017-10-25T00:13:43.789Z,80.48
2017-10-25T00:14:43.772Z,80.48
2017-10-25T00:15:43.759Z,80.86
2017-10-25T00:16:43.737Z,81.05
2017-10-25T00:17:43.726Z,80.86
2017-10-25T00:18:43.704Z,81.05
2017-10-25T00:19:43.687Z,80.86
2017-10-25T00:20:43.672Z,81.05
2017-10-25T00:21:43.661Z,80.86
2017-10-25T00:22:43.636Z,80.76
2017-10-25T00:23:43.626Z,80.57
2017-10-25T00:24:43.605Z,80.95
2017-10-25T00:25:43.589Z,80.86
2017-10-25T00:26:43.569Z,81.14
2017-10-25T00:27:43.561Z,80.57
2017-10-25T00:28:43.543Z,80.57
2017-10-25T00:29:43.523Z,80.57
2017-10-25T00:30:43.504Z,80.57
2017-10-25T00:31:43.493Z,80.67
2017-10-25T00:32:43.475Z,80.48
2017-10-25T00:33:43.455Z,80.57
2017-10-25T00:34:43.444Z,80.57
2017-10-25T00:35:43.429Z,80.67
2017-10-25T00:36:43.406Z,80.95
2017-10-25T00:37:43.396Z,80.95
2017-10-25T00:38:43.374Z,81.05
2017-10-25T00:39:43.357Z,80.57
2017-10-25T00:40:43.342Z,80.95
2017-10-25T00:41:43.324Z,81.05
2017-10-25T00:42:43.306Z,81.33
2017-10-25T00:43:43.293Z,81.71
2017-10-25T00:44:43.276Z,81.52
2017-10-25T00:45:43.263Z,81.33
2017-10-25T00:46:43.243Z,81.52
2017-10-25T00:47:43.227Z,81.33
2017-10-25T00:48:43.211Z,81.71
2017-10-25T00:49:43.193Z,81.33
2017-10-25T00:50:43.179Z,81.43
2017-10-25T00:51:43.166Z,81.43
2017-10-25T00:52:43.145Z,81.33
2017-10-25T00:53:43.128Z,81.43
2017-10-25T00:54:43.113Z,81.71
2017-10-25T00:55:43.095Z,80.86
2017-10-25T00:56:43.084Z,80.95
2017-10-25T00:57:43.064Z,81.14
2017-10-25T00:58:43.049Z,80.76
2017-10-25T00:59:43.031Z,81.05
2017-10-25T01:00:43.013Z,81.24
2017-10-25T01:01:42.999Z,81.05
2017-10-25T01:02:42.981Z,81.24
2017-10-25T01:03:42.966Z,81.14
2017-10-25T01:04:42.950Z,81.24
2017-10-25T01:05:42.938Z,81.24
2017-10-25T01:06:42.915Z,80.67
2017-10-25T01:07:42.905Z,80.86
2017-10-25T01:08:42.882Z,80.95
2017-10-25T01:09:42.868Z,80.57
2017-10-25T01:10:42.851Z,80.10
2017-10-25T01:11:42.839Z,79.91
2017-10-25T01:12:42.817Z,80.19
2017-10-25T01:13:42.802Z,80.00
2017-10-25T01:14:42.784Z,80.76
2017-10-25T01:15:42.770Z,80.95
2017-10-25T01:16:42.753Z,81.24
2017-10-25T01:17:42.741Z,81.05
2017-10-25T01:18:42.719Z,81.43
2017-10-25T01:19:42.704Z,81.24
2017-10-25T01:20:42.688Z,81.52
2017-10-25T01:21:42.673Z,81.52
2017-10-25T01:22:42.655Z,81.99
2017-10-25T01:23:42.639Z,82.28
2017-10-25T01:24:42.623Z,82.37
2017-10-25T01:25:42.608Z,82.09
2017-10-25T01:26:42.590Z,82.37
2017-10-25T01:27:42.573Z,82.85
2017-10-25T01:28:42.559Z,82.56
2017-10-25T01:29:42.541Z,82.56
2017-10-25T01:30:42.527Z,82.37
2017-10-25T01:31:42.510Z,82.56
2017-10-25T01:32:42.492Z,82.09
2017-10-25T01:33:42.478Z,81.99
2017-10-25T01:34:42.459Z,81.52
2017-10-25T01:35:42.450Z,81.05
2017-10-25T01:36:42.429Z,80.57
2017-10-25T01:37:42.415Z,80.48
2017-10-25T01:38:42.408Z,80.48
2017-10-25T01:39:42.379Z,80.57
2017-10-25T01:40:42.363Z,80.76
2017-10-25T01:41:42.346Z,81.05
2017-10-25T01:42:42.329Z,80.95
2017-10-25T01:43:42.313Z,80.95
2017-10-25T01:44:42.297Z,80.48
2017-10-25T01:45:42.283Z,80.57
2017-10-25T01:46:42.263Z,80.57
2017-10-25T01:47:42.247Z,80.38
2017-10-25T01:48:42.231Z,79.44
2017-10-25T01:49:42.216Z,79.25
2017-10-25T01:50:42.198Z,79.44
2017-10-25T01:51:42.182Z,79.57
2017-10-25T01:52:42.167Z,79.76
2017-10-25T01:53:42.150Z,79.57
2017-10-25T01:54:42.132Z,79.66
2017-10-25T01:55:42.117Z,79.47
2017-10-25T01:56:42.099Z,79.34
2017-10-25T01:57:42.083Z,79.44
2017-10-25T01:58:42.068Z,79.76
2017-10-25T01:59:42.051Z,80.43
2017-10-25T02:00:42.035Z,80.24
2017-10-25T02:01:42.019Z,79.57
2017-10-25T02:02:42.002Z,79.95
2017-10-25T02:03:41.985Z,80.04
2017-10-25T02:04:41.970Z,80.24
2017-10-25T02:05:41.951Z,80.10
2017-10-25T02:06:41.936Z,80.10
2017-10-25T02:07:41.924Z,80.86
2017-10-25T02:08:41.901Z,80.76
2017-10-25T02:09:41.893Z,80.86
2017-10-25T02:10:41.867Z,80.76
2017-10-25T02:11:41.851Z,80.76
2017-10-25T02:12:41.835Z,81.14
2017-10-25T02:13:41.825Z,81.81
2017-10-25T02:14:41.808Z,81.71
2017-10-25T02:15:41.787Z,81.81
2017-10-25T02:16:41.775Z,81.62
2017-10-25T02:17:41.759Z,81.81
2017-10-25T02:18:41.737Z,81.62
2017-10-25T02:19:41.720Z,81.71
2017-10-25T02:20:41.703Z,81.43
2017-10-25T02:21:41.687Z,81.81
2017-10-25T02:22:41.677Z,82.18
2017-10-25T02:23:41.654Z,82.09
2017-10-25T02:24:41.644Z,82.85
2017-10-25T02:25:41.624Z,82.75
2017-10-25T02:26:41.605Z,82.85
2017-10-25T02:27:41.591Z,82.18
2017-10-25T02:28:41.573Z,82.47
2017-10-25T02:29:41.558Z,82.37
2017-10-25T02:30:41.540Z,82.28
2017-10-25T02:31:41.527Z,82.09
2017-10-25T02:32:41.510Z,82.28
2017-10-25T02:33:41.494Z,82.85
2017-10-25T02:34:41.481Z,82.47
2017-10-25T02:35:41.469Z,82.47
2017-10-25T02:36:41.445Z,82.94
2017-10-25T02:37:41.429Z,82.56
2017-10-25T02:38:41.417Z,82.85
2017-10-25T02:39:41.395Z,82.85
2017-10-25T02:40:41.381Z,82.18
2017-10-25T02:41:41.368Z,82.09
2017-10-25T02:42:41.361Z,82.37
2017-10-25T02:43:41.330Z,82.18
2017-10-25T02:44:41.315Z,82.09
2017-10-25T02:45:41.298Z,82.09
2017-10-25T02:46:41.282Z,82.09
2017-10-25T02:47:41.266Z,82.37
2017-10-25T02:48:41.255Z,82.28
2017-10-25T02:49:41.243Z,82.47
2017-10-25T02:50:41.218Z,82.47
2017-10-25T02:51:41.203Z,82.18
2017-10-25T02:52:41.186Z,82.56
2017-10-25T02:53:41.170Z,82.37
2017-10-25T02:54:41.156Z,82.37
2017-10-25T02:55:41.137Z,82.37
2017-10-25T02:56:41.119Z,82.37
2017-10-25T02:57:41.103Z,82.18
2017-10-25T02:58:41.087Z,82.47
2017-10-25T02:59:41.074Z,81.90
2017-10-25T03:00:41.053Z,82.09
2017-10-25T03:01:41.038Z,82.09
2017-10-25T03:02:41.021Z,82.09
2017-10-25T03:03:41.005Z,81.90
2017-10-25T03:04:40.996Z,81.81
2017-10-25T03:05:40.971Z,81.81
2017-10-25T03:06:40.956Z,81.81
2017-10-25T03:07:40.939Z,81.90
2017-10-25T03:08:40.922Z,81.90
2017-10-25T03:09:40.912Z,81.90
2017-10-25T03:10:40.891Z,82.09
2017-10-25T03:11:40.874Z,81.90
2017-10-25T03:12:40.859Z,81.90
2017-10-25T03:13:40.842Z,82.18
2017-10-25T03:14:40.823Z,82.18
2017-10-25T03:15:40.807Z,81.99
2017-10-25T03:16:40.792Z,82.09
2017-10-25T03:17:40.781Z,81.99
2017-10-25T03:18:40.762Z,82.37
2017-10-25T03:19:40.742Z,82.28
2017-10-25T03:20:40.727Z,82.18
2017-10-25T03:21:40.711Z,82.18
2017-10-25T03:22:40.692Z,81.99
2017-10-25T03:23:40.683Z,82.09
2017-10-25T03:24:40.667Z,82.18
2017-10-25T03:25:40.648Z,81.90
2017-10-25T03:26:40.629Z,81.71
2017-10-25T03:27:40.612Z,81.81
2017-10-25T03:28:40.597Z,82.18
2017-10-25T03:29:40.579Z,82.09
2017-10-25T03:30:40.563Z,81.81
2017-10-25T03:31:40.546Z,81.52
2017-10-25T03:32:40.530Z,81.71
2017-10-25T03:33:40.520Z,81.81
2017-10-25T03:34:40.498Z,82.09
2017-10-25T03:35:40.482Z,82.18
2017-10-25T03:36:40.464Z,82.09
2017-10-25T03:37:40.453Z,82.09
2017-10-25T03:38:40.432Z,81.90
2017-10-25T03:39:40.417Z,82.18
2017-10-25T03:40:40.410Z,82.09
2017-10-25T03:41:40.386Z,82.18
2017-10-25T03:42:40.368Z,82.09
2017-10-25T03:43:40.352Z,82.09
2017-10-25T03:44:40.335Z,81.81
2017-10-25T03:45:40.320Z,81.90
2017-10-25T03:46:40.308Z,81.62
2017-10-25T03:47:40.287Z,81.52
2017-10-25T03:48:40.277Z,81.43
2017-10-25T03:49:40.261Z,81.52
2017-10-25T03:50:40.237Z,81.62
2017-10-25T03:51:40.226Z,81.71
2017-10-25T03:52:40.205Z,82.09
2017-10-25T03:53:40.190Z,81.90
2017-10-25T03:54:40.172Z,82.18
2017-10-25T03:55:40.156Z,82.28
2017-10-25T03:56:40.139Z,82.09
2017-10-25T03:57:40.132Z,82.18
2017-10-25T03:58:40.108Z,82.09
2017-10-25T03:59:40.091Z,82.37
2017-10-25T04:00:40.075Z,82.18
2017-10-25T04:01:40.062Z,82.09
2017-10-25T04:02:40.042Z,82.28
2017-10-25T04:03:40.026Z,81.90
2017-10-25T04:04:40.011Z,82.09
2017-10-25T04:05:39.999Z,81.62
2017-10-25T04:06:39.991Z,81.90
2017-10-25T04:07:39.960Z,81.62
2017-10-25T04:08:39.946Z,81.71
2017-10-25T04:09:39.929Z,81.99
2017-10-25T04:10:39.913Z,81.90
2017-10-25T04:11:39.912Z,82.09
2017-10-25T04:12:39.885Z,81.81
2017-10-25T04:13:39.864Z,81.71
2017-10-25T04:14:39.852Z,81.71
2017-10-25T04:15:39.831Z,81.90
2017-10-25T04:16:39.820Z,81.90
2017-10-25T04:17:39.798Z,81.62
2017-10-25T04:18:39.782Z,81.90
2017-10-25T04:19:39.772Z,81.90
2017-10-25T04:20:39.757Z,81.52
2017-10-25T04:21:39.733Z,81.43
2017-10-25T04:22:39.718Z,81.43
2017-10-25T04:23:39.701Z,81.90
2017-10-25T04:24:39.685Z,81.90
2017-10-25T04:25:39.669Z,81.99
2017-10-25T04:26:39.653Z,81.81
2017-10-25T04:27:39.636Z,81.62
2017-10-25T04:28:39.622Z,81.62
2017-10-25T04:29:39.608Z,81.71
2017-10-25T04:30:39.588Z,81.90
2017-10-25T04:31:39.574Z,81.24
2017-10-25T04:32:39.561Z,80.86
2017-10-25T04:33:39.540Z,81.24
2017-10-25T04:34:39.529Z,81.37
2017-10-25T04:35:39.513Z,81.43
2017-10-25T04:36:39.490Z,81.66
2017-10-25T04:37:39.476Z,81.94
2017-10-25T04:38:39.461Z,81.75
2017-10-25T04:39:39.442Z,81.66
2017-10-25T04:40:39.428Z,81.47
2017-10-25T04:41:39.411Z,81.75
2017-10-25T04:42:39.393Z,81.47
2017-10-25T04:43:39.379Z,81.85
2017-10-25T04:44:39.361Z,81.52
2017-10-25T04:45:39.351Z,81.33
2017-10-25T04:46:39.329Z,81.90
2017-10-25T04:47:39.312Z,81.90
2017-10-25T04:48:39.303Z,81.62
2017-10-25T04:49:39.286Z,81.71
2017-10-25T04:50:39.264Z,82.09
2017-10-25T04:51:39.249Z,81.62
2017-10-25T04:52:39.232Z,81.81
2017-10-25T04:53:39.222Z,82.09
2017-10-25T04:54:39.201Z,81.81
2017-10-25T04:55:39.189Z,81.90
2017-10-25T04:56:39.168Z,81.81
2017-10-25T04:57:39.158Z,82.28
2017-10-25T04:58:39.136Z,82.18
2017-10-25T04:59:39.120Z,81.81
2017-10-25T05:00:39.106Z,81.62
2017-10-25T05:01:39.089Z,81.62
2017-10-25T05:02:39.071Z,81.81
2017-10-25T05:03:39.062Z,81.81
2017-10-25T05:04:39.045Z,81.62
2017-10-25T05:05:39.025Z,81.90
2017-10-25T05:06:39.009Z,81.90
2017-10-25T05:07:38.993Z,82.09
2017-10-25T05:08:38.975Z,82.18
2017-10-25T05:09:38.961Z,81.99
2017-10-25T05:10:38.943Z,82.18
2017-10-25T05:11:38.927Z,82.56
2017-10-25T05:12:38.919Z,82.28
2017-10-25T05:13:38.897Z,82.28
2017-10-25T05:14:38.878Z,82.09
2017-10-25T05:15:38.862Z,81.90
2017-10-25T05:16:38.849Z,81.99
2017-10-25T05:17:38.835Z,82.18
2017-10-25T05:18:38.816Z,82.18
2017-10-25T05:19:38.804Z,81.90
2017-10-25T05:20:38.784Z,82.09
2017-10-25T05:21:38.767Z,81.90
2017-10-25T05:22:38.751Z,82.13
2017-10-25T05:23:38.734Z,81.85
2017-10-25T05:24:38.720Z,82.09
2017-10-25T05:25:38.702Z,81.94
2017-10-25T05:26:38.687Z,81.85
2017-10-25T05:27:38.669Z,81.62
2017-10-25T05:28:38.665Z,81.75
2017-10-25T05:29:38.638Z,81.94
2017-10-25T05:30:38.621Z,81.81
2017-10-25T05:31:38.607Z,81.52
2017-10-25T05:32:38.590Z,81.75
2017-10-25T05:33:38.573Z,81.52
2017-10-25T05:34:38.558Z,81.56
2017-10-25T05:35:38.548Z,81.85
2017-10-25T05:36:38.526Z,81.75
2017-10-25T05:37:38.509Z,81.85
2017-10-25T05:38:38.492Z,81.94
2017-10-25T05:39:38.479Z,81.56
2017-10-25T05:40:38.465Z,81.37
2017-10-25T05:41:38.448Z,82.04
2017-10-25T05:42:38.431Z,81.66
2017-10-25T05:43:38.415Z,81.47
2017-10-25T05:44:38.397Z,81.85
2017-10-25T05:45:38.381Z,81.66
2017-10-25T05:46:38.365Z,81.75
2017-10-25T05:47:38.351Z,81.75
2017-10-25T05:48:38.335Z,81.66
2017-10-25T05:49:38.317Z,81.94
2017-10-25T05:50:38.302Z,82.13
2017-10-25T05:51:38.285Z,81.94
2017-10-25T05:52:38.272Z,81.75
2017-10-25T05:53:38.259Z,81.75
2017-10-25T05:54:38.238Z,81.85
2017-10-25T05:55:38.227Z,81.47
2017-10-25T05:56:38.205Z,81.47
2017-10-25T05:57:38.190Z,81.56
2017-10-25T05:58:38.179Z,81.94
2017-10-25T05:59:38.158Z,81.56
2017-10-25T06:00:38.147Z,81.56
2017-10-25T06:01:38.128Z,81.56
2017-10-25T06:02:38.115Z,81.47
2017-10-25T06:03:38.095Z,81.56
2017-10-25T06:04:38.083Z,81.47
2017-10-25T06:05:38.070Z,81.37
2017-10-25T06:06:38.045Z,81.66
2017-10-25T06:07:38.031Z,81.66
2017-10-25T06:08:38.015Z,81.85
2017-10-25T06:09:37.998Z,81.85
2017-10-25T06:10:37.981Z,81.09
2017-10-25T06:11:37.967Z,81.56
2017-10-25T06:12:37.950Z,81.56
2017-10-25T06:13:37.935Z,81.47
2017-10-25T06:14:37.920Z,81.56
2017-10-25T06:15:37.907Z,81.56
2017-10-25T06:16:37.886Z,81.94
2017-10-25T06:17:37.877Z,81.56
2017-10-25T06:18:37.854Z,81.66
2017-10-25T06:19:37.840Z,81.56
2017-10-25T06:20:37.829Z,81.75
2017-10-25T06:21:37.809Z,80.99
2017-10-25T06:22:37.791Z,81.41
2017-10-25T06:23:37.782Z,81.23
2017-10-25T06:24:37.761Z,81.60
2017-10-25T06:25:37.747Z,81.04
2017-10-25T06:26:37.735Z,79.71
2017-10-25T06:27:37.715Z,79.33
2017-10-25T06:28:37.699Z,79.33
2017-10-25T06:29:37.683Z,79.52
2017-10-25T06:30:37.666Z,79.61
2017-10-25T06:31:37.652Z,79.04
2017-10-25T06:32:37.635Z,78.95
2017-10-25T06:33:37.620Z,78.85
2017-10-25T06:34:37.604Z,78.09
2017-10-25T06:35:37.594Z,79.42
2017-10-25T06:36:37.579Z,78.85
2017-10-25T06:37:37.558Z,78.47
2017-10-25T06:38:37.544Z,78.56
2017-10-25T06:39:37.525Z,78.09
2017-10-25T06:40:37.517Z,78.56
2017-10-25T06:41:37.496Z,79.61
2017-10-25T06:42:37.479Z,79.61
2017-10-25T06:43:37.464Z,78.85
2017-10-25T06:44:37.448Z,78.95
2017-10-25T06:45:37.432Z,79.04
2017-10-25T06:46:37.417Z,78.95
2017-10-25T06:47:37.402Z,79.99
2017-10-25T06:48:37.386Z,79.23
2017-10-25T06:49:37.377Z,78.28
2017-10-25T06:50:37.356Z,79.04
2017-10-25T06:51:37.341Z,78.95
2017-10-25T06:52:37.324Z,79.23
2017-10-25T06:53:37.315Z,79.14
2017-10-25T06:54:37.300Z,79.04
2017-10-25T06:55:37.279Z,79.71
2017-10-25T06:56:37.265Z,79.04
2017-10-25T06:57:37.250Z,78.75
2017-10-25T06:58:37.234Z,79.08
2017-10-25T06:59:37.219Z,78.09
2017-10-25T07:00:37.204Z,78.19
2017-10-25T07:01:37.190Z,78.13
2017-10-25T07:02:37.173Z,77.56
2017-10-25T07:03:37.161Z,76.61
2017-10-25T07:04:37.147Z,76.52
2017-10-25T07:05:37.129Z,76.32
2017-10-25T07:06:37.112Z,76.04
2017-10-25T07:07:37.097Z,76.14
2017-10-25T07:08:37.084Z,76.61
2017-10-25T07:09:37.068Z,77.37
2017-10-25T07:10:37.067Z,77.28
2017-10-25T07:11:37.044Z,76.61
2017-10-25T07:12:37.031Z,76.71
2017-10-25T07:13:37.008Z,76.61
2017-10-25T07:14:36.995Z,76.99
2017-10-25T07:15:36.978Z,77.37
2017-10-25T07:16:36.971Z,77.79
2017-10-25T07:17:36.951Z,77.70
2017-10-25T07:18:36.939Z,77.79
2017-10-25T07:19:36.927Z,77.31
2017-10-25T07:20:36.908Z,75.42
2017-10-25T07:21:36.907Z,73.61
2017-10-25T07:22:36.875Z,73.61
2017-10-25T07:23:36.864Z,73.80
2017-10-25T07:24:36.848Z,74.08
2017-10-25T07:25:36.902Z,74.37
2017-10-25T07:26:36.822Z,74.66
2017-10-25T07:27:36.803Z,75.23
2017-10-25T07:28:36.788Z,75.89
2017-10-25T07:29:36.775Z,76.18
2017-10-25T07:30:36.761Z,75.13
2017-10-25T07:33:27.128Z,75.42
2017-10-25T07:34:27.110Z,75.17
2017-10-25T07:35:27.097Z,75.55
2017-10-25T07:36:27.085Z,74.22
2017-10-25T07:37:27.069Z,74.12
2017-10-25T07:38:27.055Z,73.36
2017-10-25T07:39:27.042Z,73.18
2017-10-25T07:40:27.027Z,72.99
2017-10-25T07:41:27.014Z,72.13
2017-10-25T07:42:26.998Z,71.84
2017-10-25T07:43:26.986Z,71.59
2017-10-25T07:44:26.973Z,70.93
2017-10-25T07:45:26.964Z,69.31
2017-10-25T07:46:26.948Z,68.74
2017-10-25T07:47:26.932Z,69.12
2017-10-25T07:48:26.920Z,69.60
2017-10-25T07:49:26.906Z,69.98
2017-10-25T07:50:26.892Z,70.83
2017-10-25T07:51:26.880Z,71.31
2017-10-25T07:52:26.865Z,70.74
2017-10-25T07:53:26.870Z,70.83
2017-10-25T07:54:26.839Z,69.82
2017-10-25T07:55:26.830Z,68.96
2017-10-25T07:56:26.814Z,68.49
2017-10-25T07:57:26.802Z,68.40
2017-10-25T07:58:26.789Z,68.59
2017-10-25T07:59:26.776Z,68.49
2017-10-25T08:00:26.763Z,67.92
2017-10-25T08:01:26.759Z,67.73
2017-10-25T08:02:26.738Z,68.21
2017-10-25T08:03:26.723Z,67.54
2017-10-25T08:04:26.712Z,68.59
2017-10-25T08:05:26.701Z,67.54
2017-10-25T08:06:26.686Z,68.40
2017-10-25T08:07:26.675Z,68.40
2017-10-25T08:08:26.663Z,68.87
2017-10-25T08:09:26.647Z,69.25
2017-10-25T08:10:26.635Z,69.54
2017-10-25T08:11:26.623Z,70.58
2017-10-25T08:12:26.611Z,70.10
2017-10-25T08:13:26.600Z,70.01
2017-10-25T08:14:26.635Z,70.77
2017-10-25T08:15:26.605Z,71.72
2017-10-25T08:16:26.591Z,71.28
2017-10-25T08:17:26.550Z,68.33
2017-10-25T08:18:26.583Z,67.38
2017-10-25T08:19:26.525Z,67.10
2017-10-25T08:20:26.545Z,65.58
2017-10-25T08:21:26.530Z,66.37
2017-10-25T08:22:26.533Z,67.03
2017-10-25T08:23:26.477Z,67.70
2017-10-25T08:24:26.509Z,66.85
2017-10-25T08:25:26.471Z,66.27
2017-10-25T08:26:26.442Z,67.70
2017-10-25T08:27:26.436Z,67.32
2017-10-25T08:28:26.446Z,66.94
2017-10-25T08:29:26.434Z,67.89
2017-10-25T08:30:26.393Z,66.27
2017-10-25T08:31:26.394Z,66.56
2017-10-25T08:32:26.377Z,67.03
2017-10-25T08:33:26.363Z,65.42
2017-10-25T08:34:26.361Z,65.03
2017-10-25T08:35:26.335Z,65.42
2017-10-25T08:36:26.331Z,65.89
2017-10-25T08:37:26.312Z,65.03
2017-10-25T08:38:26.321Z,64.90
2017-10-25T08:39:26.289Z,64.72
2017-10-25T08:40:26.293Z,65.58
2017-10-25T08:41:26.317Z,66.72
2017-10-25T08:42:26.290Z,67.00
2017-10-25T08:43:26.284Z,65.80
2017-10-25T08:44:26.231Z,66.66
2017-10-25T08:45:26.224Z,66.11
2017-10-25T08:46:26.217Z,64.43
2017-10-25T08:47:26.197Z,62.37
2017-10-25T08:48:26.187Z,60.75
2017-10-25T08:49:26.179Z,59.99
2017-10-25T08:50:26.189Z,58.36
2017-10-25T08:51:26.152Z,58.77
2017-10-25T08:52:26.144Z,57.15
2017-10-25T08:53:26.133Z,58.29
2017-10-25T08:54:26.119Z,55.94
2017-10-25T08:55:26.111Z,55.58
2017-10-25T08:56:26.099Z,54.66
2017-10-25T08:57:26.089Z,51.60
2017-10-25T08:58:26.078Z,49.59
2017-10-25T08:59:26.069Z,49.59
2017-10-25T09:00:26.058Z,52.10
2017-10-25T09:01:26.049Z,50.50
2017-10-25T09:02:26.037Z,49.95
2017-10-25T09:03:26.029Z,49.11
2017-10-25T09:04:26.018Z,46.19
2017-10-25T09:05:26.009Z,42.57
2017-10-25T09:06:26.001Z,40.77
2017-10-25T09:07:25.989Z,40.60
2017-10-25T09:08:25.981Z,40.99
2017-10-25T09:09:25.972Z,40.79
2017-10-25T09:10:25.961Z,40.91
2017-10-25T09:11:25.954Z,38.22
2017-10-25T09:12:25.943Z,38.04
2017-10-25T09:13:25.934Z,36.33
2017-10-25T09:14:25.925Z,35.10
2017-10-25T09:15:25.916Z,34.05
2017-10-25T09:16:25.906Z,33.28
2017-10-25T09:17:25.897Z,32.70
2017-10-25T09:18:25.888Z,31.75
2017-10-25T09:19:25.882Z,31.29
2017-10-25T09:20:25.871Z,31.18
2017-10-25T09:21:25.863Z,31.00
2017-10-25T09:22:25.854Z,29.86
2017-10-25T09:23:25.845Z,29.87
2017-10-25T09:24:25.838Z,27.87
2017-10-25T09:25:25.831Z,27.91
2017-10-25T09:26:25.824Z,25.43
2017-10-25T09:27:25.815Z,24.57
2017-10-25T09:28:25.808Z,22.95
2017-10-25T09:29:25.801Z,20.92
2017-10-25T09:30:25.797Z,21.48
2017-10-25T09:31:25.791Z,21.78
2017-10-25T09:32:25.789Z,21.39
2017-10-25T09:33:25.782Z,21.10
2017-10-25T09:34:25.774Z,21.10
2017-10-25T09:35:25.772Z,21.11
2017-10-25T09:36:25.771Z,20.82
2017-10-25T09:37:25.766Z,20.45
2017-10-25T09:38:25.769Z,20.17
2017-10-25T09:39:25.762Z,18.93
2017-10-25T09:40:25.758Z,19.43
2017-10-25T09:41:25.759Z,17.49
2017-10-25T09:42:25.758Z,17.60
2017-10-25T09:43:25.759Z,15.77
2017-10-25T09:44:25.759Z,15.77
2017-10-25T09:45:25.761Z,16.24
2017-10-25T09:46:25.763Z,17.89
2017-10-25T09:47:25.764Z,17.49
2017-10-25T09:48:25.766Z,17.96
2017-10-25T09:49:25.770Z,19.30
2017-10-25T09:50:25.777Z,20.84
2017-10-25T09:51:25.776Z,20.65
2017-10-25T09:52:25.782Z,19.57
2017-10-25T09:53:25.784Z,21.88
2017-10-25T09:54:25.788Z,22.43
2017-10-25T09:55:25.792Z,22.23
2017-10-25T09:56:25.798Z,24.07
2017-10-25T09:57:25.800Z,24.52
2017-10-25T09:58:25.806Z,26.73
2017-10-25T09:59:25.810Z,27.12
2017-10-25T10:00:25.815Z,29.50
2017-10-25T10:01:25.819Z,29.77
2017-10-25T10:02:25.822Z,31.19
2017-10-25T10:03:25.830Z,32.52
2017-10-25T10:04:25.833Z,32.41
2017-10-25T10:05:25.838Z,33.07
2017-10-25T10:06:25.842Z,34.20
2017-10-25T10:07:25.846Z,34.22
2017-10-25T10:08:25.856Z,34.70
2017-10-25T10:09:25.859Z,34.80
2017-10-25T10:10:25.862Z,36.13
2017-10-25T10:11:25.866Z,37.26
2017-10-25T10:12:25.878Z,35.72
2017-10-25T10:13:25.881Z,35.51
2017-10-25T10:14:25.886Z,35.42
2017-10-25T10:15:25.892Z,36.18
2017-10-25T10:16:25.901Z,38.39
2017-10-25T10:17:25.904Z,37.32
2017-10-25T10:18:25.918Z,37.32
2017-10-25T10:19:25.916Z,38.95
2017-10-25T10:20:25.918Z,39.76
2017-10-25T10:21:25.925Z,36.18
2017-10-25T10:22:25.927Z,37.24
2017-10-25T10:23:25.933Z,39.23
2017-10-25T10:24:25.942Z,38.37
2017-10-25T10:25:25.958Z,39.33
2017-10-25T10:26:25.953Z,38.85
2017-10-25T10:27:25.951Z,40.20
2017-10-25T10:28:25.953Z,39.45
2017-10-25T10:29:25.956Z,38.60
2017-10-25T10:30:25.970Z,37.72
2017-10-25T10:31:25.972Z,37.43
2017-10-25T10:32:25.962Z,37.15
2017-10-25T10:33:25.967Z,39.35
2017-10-25T10:34:25.967Z,39.35
2017-10-25T10:35:25.967Z,38.87
2017-10-25T10:36:25.984Z,39.62
2017-10-25T10:37:25.970Z,39.91
2017-10-25T10:38:25.969Z,39.91
2017-10-25T10:39:25.993Z,40.48
2017-10-25T10:40:25.979Z,40.66
2017-10-25T10:41:25.969Z,40.56
2017-10-25T10:42:25.982Z,41.71
2017-10-25T10:43:25.965Z,41.61
2017-10-25T10:44:25.975Z,42.27
2017-10-25T10:45:25.971Z,43.60
2017-10-25T10:46:25.970Z,45.50
2017-10-25T10:47:25.969Z,45.21
2017-10-25T10:48:25.964Z,45.43
2017-10-25T10:49:25.957Z,46.65
2017-10-25T10:50:25.955Z,43.41
2017-10-25T10:51:25.955Z,43.77
2017-10-25T10:52:25.950Z,43.77
2017-10-25T10:53:25.948Z,45.02
2017-10-25T10:54:25.967Z,44.45
2017-10-25T10:55:25.946Z,46.17
2017-10-25T10:56:25.952Z,45.02
2017-10-25T10:57:25.942Z,44.66
2017-10-25T10:58:25.961Z,43.30
2017-10-25T10:59:25.942Z,44.35
2017-10-25T11:00:25.951Z,44.64
2017-10-25T11:01:25.941Z,45.02
2017-10-25T11:02:25.938Z,47.03
2017-10-25T11:03:25.927Z,45.59
2017-10-25T11:04:25.912Z,44.93
2017-10-25T11:05:25.911Z,45.02
2017-10-25T11:06:25.913Z,44.26
2017-10-25T11:07:25.916Z,45.12
2017-10-25T11:08:25.903Z,45.89
2017-10-25T11:09:25.885Z,44.54
2017-10-25T11:10:25.920Z,45.12
2017-10-25T11:11:25.900Z,45.89
2017-10-25T11:12:25.898Z,47.61
2017-10-25T11:55:25.655Z,42.36
2017-10-25T11:56:25.622Z,42.36
2017-10-25T11:57:25.635Z,42.55
2017-10-25T11:58:25.627Z,41.88
2017-10-25T11:59:25.623Z,41.88
2017-10-25T12:00:25.613Z,39.97
2017-10-25T12:01:25.656Z,40.83
2017-10-25T12:02:25.612Z,40.64
2017-10-25T12:03:25.607Z,40.64
2017-10-25T12:04:25.605Z,41.60
2017-10-25T12:05:25.604Z,42.29
2017-10-25T12:06:25.595Z,40.83
2017-10-25T12:07:25.595Z,40.83
2017-10-25T12:08:25.592Z,41.88
2017-10-25T12:09:25.562Z,40.92
2017-10-25T12:10:25.643Z,42.55
2017-10-25T12:11:25.571Z,41.97
2017-10-25T12:12:25.573Z,41.02
2017-10-25T12:13:25.544Z,42.27
2017-10-25T12:14:25.559Z,42.17
2017-10-25T12:15:25.553Z,40.83
2017-10-25T12:16:25.553Z,41.78
2017-10-25T12:17:25.548Z,41.69
2017-10-25T12:18:25.543Z,42.07
2017-10-25T12:19:25.528Z,43.80
2017-10-25T12:20:25.533Z,42.36
2017-10-25T12:21:25.513Z,44.01
2017-10-25T12:22:25.507Z,41.61
2017-10-25T12:23:25.513Z,40.94
2017-10-25T12:24:25.507Z,40.17
2017-10-25T12:25:25.501Z,40.84
2017-10-25T12:26:25.484Z,42.29
2017-10-25T12:27:25.494Z,41.33
2017-10-25T12:28:25.487Z,41.90
2017-10-25T12:29:25.470Z,41.90
2017-10-25T12:30:25.468Z,40.47
2017-10-25T12:31:25.470Z,40.75
2017-10-25T12:32:25.451Z,41.13
2017-10-25T12:33:25.459Z,42.10
2017-10-25T12:34:25.440Z,40.27
2017-10-25T12:35:25.442Z,39.60
2017-10-25T12:36:25.446Z,39.79
2017-10-25T12:37:25.431Z,39.60
2017-10-25T12:38:25.432Z,40.08
2017-10-25T12:39:25.424Z,40.58
2017-10-25T12:40:25.421Z,42.69
2017-10-25T12:41:25.412Z,39.33
2017-10-25T12:42:25.408Z,39.79
2017-10-25T12:43:25.404Z,39.31
2017-10-25T12:44:25.399Z,38.95
2017-10-25T12:45:25.395Z,40.66
2017-10-25T12:46:25.388Z,41.25
2017-10-25T12:47:25.379Z,41.25
2017-10-25T12:48:25.377Z,41.93
2017-10-25T12:49:25.374Z,40.39
2017-10-25T12:50:25.361Z,39.81
2017-10-25T12:51:25.361Z,39.91
2017-10-25T12:52:25.357Z,38.56
2017-10-25T12:53:25.348Z,39.62
2017-10-25T12:54:25.341Z,40.00
2017-10-25T12:55:25.329Z,40.96
2017-10-25T12:56:25.334Z,42.02
2017-10-25T12:57:25.326Z,42.21
2017-10-25T12:58:25.312Z,40.67
2017-10-25T12:59:25.309Z,40.10
2017-10-25T13:00:25.299Z,40.39
2017-10-25T13:01:25.304Z,41.06
2017-10-25T13:02:25.291Z,40.87
2017-10-25T13:03:25.295Z,39.22
2017-10-25T13:04:25.285Z,39.72
2017-10-25T13:05:25.270Z,38.95
2017-10-25T13:06:25.278Z,38.95
2017-10-25T13:07:25.323Z,39.81
2017-10-25T13:08:25.269Z,38.59
2017-10-25T13:09:25.239Z,38.87
2017-10-25T13:10:25.256Z,38.29
2017-10-25T13:11:25.196Z,38.29
2017-10-25T13:12:25.190Z,38.96
2017-10-25T13:13:25.186Z,40.31
2017-10-25T13:14:25.179Z,39.83
2017-10-25T13:15:25.173Z,38.87
2017-10-25T13:16:25.171Z,38.79
2017-10-25T13:17:25.165Z,38.22
2017-10-25T13:18:25.160Z,38.22
2017-10-25T13:19:25.155Z,38.41
2017-10-25T13:20:25.150Z,37.45
2017-10-25T13:21:25.157Z,38.32
2017-10-25T13:22:25.140Z,37.26
2017-10-25T13:23:25.137Z,37.74
2017-10-25T13:24:25.130Z,38.02
2017-10-25T13:25:25.127Z,38.51
2017-10-25T13:26:25.129Z,38.32
2017-10-25T13:27:25.118Z,38.12
2017-10-25T13:28:25.159Z,38.22
2017-10-25T13:29:25.147Z,38.32
2017-10-25T13:30:25.161Z,39.83
2017-10-25T13:31:25.143Z,41.08
2017-10-25T13:32:25.141Z,41.37
2017-10-25T13:33:25.145Z,42.33
2017-10-25T13:34:25.091Z,40.50
2017-10-25T13:35:25.086Z,38.20
2017-10-25T13:36:25.083Z,39.73